sensor_id;sensor_type;location;lat;lon;timestamp;pressure;altitude;pressure_sealevel;temperature;humidity
17209;BME280;8720;48.488;9.202;2023-04-02T00:00:16;96263.66;;;13.13;54.27
17209;BME280;8720;48.488;9.202;2023-04-02T00:02:47;96265.50;;;13.11;54.27
17209;BME280;8720;48.488;9.202;2023-04-02T00:05:41;96262.16;;;13.08;54.41
17209;BME280;8720;48.488;9.202;2023-04-02T00:08:28;96263.16;;;13.05;54.35
17209;BME280;8720;48.488;9.202;2023-04-02T00:11:04;96238.56;;;12.88;54.42
17209;BME280;8720;48.488;9.202;2023-04-02T00:13:38;96269.56;;;12.98;54.33
17209;BME280;8720;48.488;9.202;2023-04-02T00:16:13;96259.28;;;12.94;54.37
17209;BME280;8720;48.488;9.202;2023-04-02T00:18:47;96261.97;;;12.92;54.37
17209;BME280;8720;48.488;9.202;2023-04-02T00:21:22;96260.34;;;12.90;54.50
17209;BME280;8720;48.488;9.202;2023-04-02T00:23:53;96263.97;;;12.87;54.58
17209;BME280;8720;48.488;9.202;2023-04-02T00:26:26;96267.53;;;12.86;54.46
17209;BME280;8720;48.488;9.202;2023-04-02T00:28:57;96262.38;;;12.83;54.51
17209;BME280;8720;48.488;9.202;2023-04-02T00:31:26;96265.16;;;12.80;54.60
17209;BME280;8720;48.488;9.202;2023-04-02T00:33:53;96267.84;;;12.78;54.72
17209;BME280;8720;48.488;9.202;2023-04-02T00:36:24;96269.66;;;12.76;54.61
17209;BME280;8720;48.488;9.202;2023-04-02T00:38:57;96267.13;;;12.75;54.67
17209;BME280;8720;48.488;9.202;2023-04-02T00:41:28;96268.19;;;12.71;54.81
17209;BME280;8720;48.488;9.202;2023-04-02T00:43:59;96270.00;;;12.69;54.60
17209;BME280;8720;48.488;9.202;2023-04-02T00:46:30;96264.84;;;12.67;54.74
17209;BME280;8720;48.488;9.202;2023-04-02T00:49:06;96272.78;;;12.66;54.78
17209;BME280;8720;48.488;9.202;2023-04-02T00:51:41;96271.22;;;12.62;54.72
17209;BME280;8720;48.488;9.202;2023-04-02T00:54:12;96279.16;;;12.60;54.76
17209;BME280;8720;48.488;9.202;2023-04-02T00:56:45;96272.19;;;12.59;54.78
17209;BME280;8720;48.488;9.202;2023-04-02T00:59:25;96266.72;;;12.45;54.80
17209;BME280;8720;48.488;9.202;2023-04-02T01:01:59;96275.06;;;12.53;54.90
17209;BME280;8720;48.488;9.202;2023-04-02T01:04:33;96263.31;;;12.43;54.92
17209;BME280;8720;48.488;9.202;2023-04-02T01:07:08;96276.94;;;12.51;54.88
17209;BME280;8720;48.488;9.202;2023-04-02T01:09:57;96279.69;;;12.48;55.05
17209;BME280;8720;48.488;9.202;2023-04-02T01:12:47;96292.09;;;12.45;54.92
17209;BME280;8720;48.488;9.202;2023-04-02T01:15:24;96289.53;;;12.43;54.99
17209;BME280;8720;48.488;9.202;2023-04-02T01:18:25;96300.16;;;12.40;55.01
17209;BME280;8720;48.488;9.202;2023-04-02T01:21:23;96300.38;;;12.36;54.98
17209;BME280;8720;48.488;9.202;2023-04-02T01:24:04;96293.38;;;12.35;54.99
17209;BME280;8720;48.488;9.202;2023-04-02T01:26:53;96298.00;;;12.30;54.92
17209;BME280;8720;48.488;9.202;2023-04-02T01:29:27;96288.63;;;12.24;54.86
17209;BME280;8720;48.488;9.202;2023-04-02T01:31:59;96302.63;;;12.23;54.83
17209;BME280;8720;48.488;9.202;2023-04-02T01:34:29;96294.19;;;12.17;55.08
17209;BME280;8720;48.488;9.202;2023-04-02T01:37:14;96298.69;;;12.13;55.07
17209;BME280;8720;48.488;9.202;2023-04-02T01:40:04;96289.22;;;12.09;54.99
17209;BME280;8720;48.488;9.202;2023-04-02T01:42:42;96300.72;;;12.07;54.98
17209;BME280;8720;48.488;9.202;2023-04-02T01:45:16;96305.16;;;12.05;55.16
17209;BME280;8720;48.488;9.202;2023-04-02T01:47:45;96303.41;;;12.05;55.24
17209;BME280;8720;48.488;9.202;2023-04-02T01:50:26;96311.28;;;12.05;55.19
17209;BME280;8720;48.488;9.202;2023-04-02T01:52:59;96303.41;;;12.05;55.40
17209;BME280;8720;48.488;9.202;2023-04-02T01:55:39;96309.41;;;12.07;55.46
17209;BME280;8720;48.488;9.202;2023-04-02T01:58:09;96309.38;;;12.09;55.52
17209;BME280;8720;48.488;9.202;2023-04-02T02:03:22;96309.22;;;12.12;55.60
17209;BME280;8720;48.488;9.202;2023-04-02T02:05:50;96313.44;;;12.16;55.67
17209;BME280;8720;48.488;9.202;2023-04-02T02:08:31;96308.91;;;12.19;55.70
17209;BME280;8720;48.488;9.202;2023-04-02T02:11:00;96313.13;;;12.23;55.61
17209;BME280;8720;48.488;9.202;2023-04-02T02:13:28;96315.63;;;12.26;55.60
17209;BME280;8720;48.488;9.202;2023-04-02T02:15:58;96314.63;;;12.29;55.78
17209;BME280;8720;48.488;9.202;2023-04-02T02:18:28;96311.09;;;12.30;55.60
17209;BME280;8720;48.488;9.202;2023-04-02T02:20:59;96316.22;;;12.33;55.66
17209;BME280;8720;48.488;9.202;2023-04-02T02:23:30;96312.63;;;12.35;55.78
17209;BME280;8720;48.488;9.202;2023-04-02T02:25:58;96316.88;;;12.38;55.59
17209;BME280;8720;48.488;9.202;2023-04-02T02:28:28;96337.72;;;12.41;55.71
17209;BME280;8720;48.488;9.202;2023-04-02T02:31:01;96320.16;;;12.43;55.68
17209;BME280;8720;48.488;9.202;2023-04-02T02:33:38;96326.19;;;12.45;55.64
17209;BME280;8720;48.488;9.202;2023-04-02T02:36:18;96323.56;;;12.45;55.47
17209;BME280;8720;48.488;9.202;2023-04-02T02:38:54;96318.25;;;12.46;55.61
17209;BME280;8720;48.488;9.202;2023-04-02T02:41:44;96322.59;;;12.47;55.60
17209;BME280;8720;48.488;9.202;2023-04-02T02:44:19;96332.16;;;12.48;55.49
17209;BME280;8720;48.488;9.202;2023-04-02T02:46:52;96325.94;;;12.51;55.72
17209;BME280;8720;48.488;9.202;2023-04-02T02:49:27;96333.81;;;12.51;55.65
17209;BME280;8720;48.488;9.202;2023-04-02T02:52:08;96331.97;;;12.53;55.70
17209;BME280;8720;48.488;9.202;2023-04-02T02:54:53;96333.66;;;12.54;55.82
17209;BME280;8720;48.488;9.202;2023-04-02T02:57:27;96340.56;;;12.56;55.76
17209;BME280;8720;48.488;9.202;2023-04-02T02:59:58;96344.75;;;12.60;55.64
17209;BME280;8720;48.488;9.202;2023-04-02T03:02:27;96347.25;;;12.63;55.94
17209;BME280;8720;48.488;9.202;2023-04-02T03:04:57;96353.16;;;12.68;55.71
17209;BME280;8720;48.488;9.202;2023-04-02T03:07:28;96350.41;;;12.71;55.77
17209;BME280;8720;48.488;9.202;2023-04-02T03:10:08;96351.97;;;12.75;55.60
17209;BME280;8720;48.488;9.202;2023-04-02T03:12:44;96361.41;;;12.79;55.60
17209;BME280;8720;48.488;9.202;2023-04-02T03:15:22;96360.44;;;12.82;55.67
17209;BME280;8720;48.488;9.202;2023-04-02T03:17:59;96359.31;;;12.88;55.53
17209;BME280;8720;48.488;9.202;2023-04-02T03:20:37;96355.75;;;12.89;55.58
17209;BME280;8720;48.488;9.202;2023-04-02T03:23:16;96366.16;;;12.92;55.46
17209;BME280;8720;48.488;9.202;2023-04-02T03:25:51;96365.88;;;12.98;55.67
17209;BME280;8720;48.488;9.202;2023-04-02T03:28:27;96367.44;;;13.02;55.56
17209;BME280;8720;48.488;9.202;2023-04-02T03:31:00;96372.53;;;13.06;55.45
17209;BME280;8720;48.488;9.202;2023-04-02T03:33:34;96374.09;;;13.10;55.29
17209;BME280;8720;48.488;9.202;2023-04-02T03:36:18;96373.94;;;13.13;55.36
17209;BME280;8720;48.488;9.202;2023-04-02T03:38:50;96375.59;;;13.16;55.13
17209;BME280;8720;48.488;9.202;2023-04-02T03:41:27;96372.00;;;13.18;55.45
17209;BME280;8720;48.488;9.202;2023-04-02T03:44:02;96379.72;;;13.21;55.31
17209;BME280;8720;48.488;9.202;2023-04-02T03:46:39;96382.22;;;13.24;55.42
17209;BME280;8720;48.488;9.202;2023-04-02T03:49:22;96386.47;;;13.27;55.29
17209;BME280;8720;48.488;9.202;2023-04-02T03:52:00;96380.22;;;13.29;55.27
17209;BME280;8720;48.488;9.202;2023-04-02T03:54:30;96383.56;;;13.33;55.30
17209;BME280;8720;48.488;9.202;2023-04-02T03:56:58;96386.97;;;13.35;55.19
17209;BME280;8720;48.488;9.202;2023-04-02T03:59:36;96392.13;;;13.38;55.56
17209;BME280;8720;48.488;9.202;2023-04-02T04:02:18;96398.16;;;13.40;55.32
17209;BME280;8720;48.488;9.202;2023-04-02T04:04:53;96398.94;;;13.42;55.25
17209;BME280;8720;48.488;9.202;2023-04-02T04:07:30;96402.34;;;13.44;55.36
17209;BME280;8720;48.488;9.202;2023-04-02T04:10:00;96403.06;;;13.47;55.20
17209;BME280;8720;48.488;9.202;2023-04-02T04:12:34;96408.09;;;13.52;55.43
17209;BME280;8720;48.488;9.202;2023-04-02T04:15:13;96407.97;;;13.55;55.24
17209;BME280;8720;48.488;9.202;2023-04-02T04:17:49;96413.06;;;13.58;55.17
17209;BME280;8720;48.488;9.202;2023-04-02T04:20:33;96409.47;;;13.60;55.09
17209;BME280;8720;48.488;9.202;2023-04-02T04:23:17;96424.25;;;13.63;55.26
17209;BME280;8720;48.488;9.202;2023-04-02T04:25:45;96426.88;;;13.63;55.26
17209;BME280;8720;48.488;9.202;2023-04-02T04:28:25;96424.19;;;13.64;55.19
17209;BME280;8720;48.488;9.202;2023-04-02T04:31:01;96429.34;;;13.66;55.17
17209;BME280;8720;48.488;9.202;2023-04-02T04:33:42;96432.91;;;13.65;55.31
17209;BME280;8720;48.488;9.202;2023-04-02T04:36:23;96432.97;;;13.63;55.23
17209;BME280;8720;48.488;9.202;2023-04-02T04:39:07;96434.63;;;13.66;55.37
17209;BME280;8720;48.488;9.202;2023-04-02T04:41:45;96433.91;;;13.62;55.32
17209;BME280;8720;48.488;9.202;2023-04-02T04:44:18;96440.13;;;13.60;55.37
17209;BME280;8720;48.488;9.202;2023-04-02T04:46:57;96457.75;;;13.58;55.39
17209;BME280;8720;48.488;9.202;2023-04-02T04:49:32;96443.81;;;13.56;55.28
17209;BME280;8720;48.488;9.202;2023-04-02T04:52:10;96445.13;;;13.66;54.84
17209;BME280;8720;48.488;9.202;2023-04-02T04:54:44;96447.75;;;13.66;55.11
17209;BME280;8720;48.488;9.202;2023-04-02T04:57:29;96450.53;;;13.63;55.17
17209;BME280;8720;48.488;9.202;2023-04-02T05:00:05;96459.25;;;13.63;55.36
17209;BME280;8720;48.488;9.202;2023-04-02T05:02:46;96455.78;;;13.63;55.48
17209;BME280;8720;48.488;9.202;2023-04-02T05:05:19;96460.19;;;13.62;55.48
17209;BME280;8720;48.488;9.202;2023-04-02T05:07:55;96463.72;;;13.61;55.52
17209;BME280;8720;48.488;9.202;2023-04-02T05:10:35;96469.06;;;13.60;55.50
17209;BME280;8720;48.488;9.202;2023-04-02T05:13:15;96470.00;;;13.59;55.64
17209;BME280;8720;48.488;9.202;2023-04-02T05:15:52;96472.66;;;13.57;55.67
17209;BME280;8720;48.488;9.202;2023-04-02T05:18:27;96472.66;;;13.57;55.57
17209;BME280;8720;48.488;9.202;2023-04-02T05:21:03;96473.59;;;13.56;55.70
17209;BME280;8720;48.488;9.202;2023-04-02T05:23:37;96476.16;;;13.58;55.68
17209;BME280;8720;48.488;9.202;2023-04-02T05:26:16;96477.09;;;13.57;55.71
17209;BME280;8720;48.488;9.202;2023-04-02T05:28:53;96485.88;;;13.56;55.67
17209;BME280;8720;48.488;9.202;2023-04-02T05:31:27;96479.78;;;13.55;55.69
17209;BME280;8720;48.488;9.202;2023-04-02T05:33:58;96486.75;;;13.56;55.88
17209;BME280;8720;48.488;9.202;2023-04-02T05:36:27;96481.41;;;13.58;55.57
17209;BME280;8720;48.488;9.202;2023-04-02T05:38:59;96491.91;;;13.58;55.80
17209;BME280;8720;48.488;9.202;2023-04-02T05:42:00;96498.13;;;13.57;55.65
17209;BME280;8720;48.488;9.202;2023-04-02T05:44:54;96500.66;;;13.58;55.98
17209;BME280;8720;48.488;9.202;2023-04-02T05:47:27;96501.44;;;13.60;56.08
17209;BME280;8720;48.488;9.202;2023-04-02T05:50:15;96503.22;;;13.60;56.33
17209;BME280;8720;48.488;9.202;2023-04-02T05:52:53;96510.06;;;13.64;56.24
17209;BME280;8720;48.488;9.202;2023-04-02T05:55:40;96508.34;;;13.63;56.16
17209;BME280;8720;48.488;9.202;2023-04-02T05:58:21;96515.03;;;13.70;56.43
17209;BME280;8720;48.488;9.202;2023-04-02T06:01:17;96508.84;;;13.71;56.26
17209;BME280;8720;48.488;9.202;2023-04-02T06:03:56;96501.25;;;13.65;56.27
17209;BME280;8720;48.488;9.202;2023-04-02T06:06:49;96512.22;;;13.75;56.38
17209;BME280;8720;48.488;9.202;2023-04-02T06:09:30;96518.19;;;13.78;56.54
17209;BME280;8720;48.488;9.202;2023-04-02T06:12:22;96520.59;;;13.83;56.49
17209;BME280;8720;48.488;9.202;2023-04-02T06:14:54;96533.53;;;13.87;56.64
17209;BME280;8720;48.488;9.202;2023-04-02T06:17:26;96530.84;;;13.89;56.54
17209;BME280;8720;48.488;9.202;2023-04-02T06:19:58;96536.69;;;13.95;56.71
17209;BME280;8720;48.488;9.202;2023-04-02T06:22:34;96535.63;;;13.99;56.69
17209;BME280;8720;48.488;9.202;2023-04-02T06:25:10;96537.22;;;14.03;56.54
17209;BME280;8720;48.488;9.202;2023-04-02T06:27:45;96538.78;;;14.07;56.48
17209;BME280;8720;48.488;9.202;2023-04-02T06:30:25;96538.50;;;14.13;56.38
17209;BME280;8720;48.488;9.202;2023-04-02T06:32:56;96540.91;;;14.18;56.52
17209;BME280;8720;48.488;9.202;2023-04-02T06:35:25;96544.97;;;14.25;56.66
17209;BME280;8720;48.488;9.202;2023-04-02T06:38:03;96549.91;;;14.32;56.37
17209;BME280;8720;48.488;9.202;2023-04-02T06:40:41;96547.91;;;14.37;56.11
17209;BME280;8720;48.488;9.202;2023-04-02T06:43:34;96558.16;;;14.43;56.20
17209;BME280;8720;48.488;9.202;2023-04-02T06:46:21;96557.88;;;14.49;56.07
17209;BME280;8720;48.488;9.202;2023-04-02T06:49:12;96568.13;;;14.55;56.04
17209;BME280;8720;48.488;9.202;2023-04-02T06:51:43;96563.56;;;14.59;55.94
17209;BME280;8720;48.488;9.202;2023-04-02T06:54:16;96574.31;;;14.73;56.10
17209;BME280;8720;48.488;9.202;2023-04-02T06:56:50;96573.00;;;14.82;55.91
17209;BME280;8720;48.488;9.202;2023-04-02T06:59:37;96577.81;;;14.91;56.15
17209;BME280;8720;48.488;9.202;2023-04-02T07:02:27;96585.31;;;15.00;55.88
17209;BME280;8720;48.488;9.202;2023-04-02T07:05:01;96582.28;;;15.07;55.83
17209;BME280;8720;48.488;9.202;2023-04-02T07:07:31;96578.63;;;15.10;55.40
17209;BME280;8720;48.488;9.202;2023-04-02T07:10:02;96590.16;;;15.26;55.28
17209;BME280;8720;48.488;9.202;2023-04-02T07:12:30;96583.50;;;15.36;55.18
17209;BME280;8720;48.488;9.202;2023-04-02T07:14:57;96595.25;;;15.48;55.22
17209;BME280;8720;48.488;9.202;2023-04-02T07:17:26;96606.03;;;15.60;54.65
17209;BME280;8720;48.488;9.202;2023-04-02T07:19:53;96599.66;;;15.64;54.74
17209;BME280;8720;48.488;9.202;2023-04-02T07:22:21;96613.88;;;15.79;54.32
17209;BME280;8720;48.488;9.202;2023-04-02T07:24:54;96613.56;;;15.85;54.54
17209;BME280;8720;48.488;9.202;2023-04-02T07:27:22;96619.28;;;15.93;54.27
17209;BME280;8720;48.488;9.202;2023-04-02T07:29:49;96616.31;;;15.99;54.26
17209;BME280;8720;48.488;9.202;2023-04-02T07:32:16;96618.75;;;16.03;54.04
17209;BME280;8720;48.488;9.202;2023-04-02T07:34:46;96623.78;;;16.08;53.80
17209;BME280;8720;48.488;9.202;2023-04-02T07:37:45;96622.75;;;16.10;53.83
17209;BME280;8720;48.488;9.202;2023-04-02T07:40:18;96624.47;;;16.11;53.63
17209;BME280;8720;48.488;9.202;2023-04-02T07:42:47;96636.41;;;16.18;53.62
17209;BME280;8720;48.488;9.202;2023-04-02T07:45:15;96630.03;;;16.22;53.56
17209;BME280;8720;48.488;9.202;2023-04-02T07:47:43;96636.78;;;16.28;53.46
17209;BME280;8720;48.488;9.202;2023-04-02T07:50:12;96639.09;;;16.34;52.88
17209;BME280;8720;48.488;9.202;2023-04-02T07:52:40;96642.44;;;16.37;52.75
17209;BME280;8720;48.488;9.202;2023-04-02T07:55:09;96642.28;;;16.41;52.68
17209;BME280;8720;48.488;9.202;2023-04-02T07:57:38;96650.81;;;16.46;52.98
17209;BME280;8720;48.488;9.202;2023-04-02T08:00:09;96645.44;;;16.47;52.15
17209;BME280;8720;48.488;9.202;2023-04-02T08:02:38;96651.25;;;16.86;47.94
17209;BME280;8720;48.488;9.202;2023-04-02T08:05:07;96660.19;;;16.84;49.70
17209;BME280;8720;48.488;9.202;2023-04-02T08:07:36;96659.41;;;16.82;50.57
17209;BME280;8720;48.488;9.202;2023-04-02T08:10:07;96634.38;;;16.73;51.12
17209;BME280;8720;48.488;9.202;2023-04-02T08:12:35;96667.97;;;16.87;51.11
17209;BME280;8720;48.488;9.202;2023-04-02T08:15:04;96660.03;;;16.87;50.90
17209;BME280;8720;48.488;9.202;2023-04-02T08:17:32;96677.44;;;16.91;50.98
17209;BME280;8720;48.488;9.202;2023-04-02T08:19:59;96676.50;;;16.92;50.91
17209;BME280;8720;48.488;9.202;2023-04-02T08:22:27;96684.41;;;16.92;50.90
17209;BME280;8720;48.488;9.202;2023-04-02T08:24:56;96684.28;;;16.95;51.04
17209;BME280;8720;48.488;9.202;2023-04-02T08:27:24;96686.72;;;16.98;50.61
17209;BME280;8720;48.488;9.202;2023-04-02T08:29:51;96691.94;;;16.99;50.62
17209;BME280;8720;48.488;9.202;2023-04-02T08:32:19;96691.06;;;16.99;50.52
17209;BME280;8720;48.488;9.202;2023-04-02T08:34:46;96703.50;;;16.97;50.29
17209;BME280;8720;48.488;9.202;2023-04-02T08:37:14;96704.28;;;16.99;50.40
17209;BME280;8720;48.488;9.202;2023-04-02T08:39:41;96707.69;;;17.01;50.42
17209;BME280;8720;48.488;9.202;2023-04-02T08:42:22;96711.09;;;17.03;50.29
17209;BME280;8720;48.488;9.202;2023-04-02T08:45:13;96715.56;;;17.02;50.46
17209;BME280;8720;48.488;9.202;2023-04-02T08:47:48;96707.47;;;17.05;50.39
17209;BME280;8720;48.488;9.202;2023-04-02T08:50:27;96713.59;;;17.06;50.52
17209;BME280;8720;48.488;9.202;2023-04-02T08:52:56;96713.41;;;17.09;50.29
17209;BME280;8720;48.488;9.202;2023-04-02T08:55:34;96717.78;;;17.10;50.24
17209;BME280;8720;48.488;9.202;2023-04-02T08:58:20;96723.22;;;17.07;50.12
17209;BME280;8720;48.488;9.202;2023-04-02T09:00:56;96725.09;;;17.05;50.37
17209;BME280;8720;48.488;9.202;2023-04-02T09:03:30;96718.34;;;16.99;50.21
17209;BME280;8720;48.488;9.202;2023-04-02T09:06:00;96723.72;;;16.98;50.07
17209;BME280;8720;48.488;9.202;2023-04-02T09:08:31;96723.66;;;16.99;49.94
17209;BME280;8720;48.488;9.202;2023-04-02T09:11:07;96733.22;;;17.02;50.07
17209;BME280;8720;48.488;9.202;2023-04-02T09:13:43;96732.09;;;17.06;50.42
17209;BME280;8720;48.488;9.202;2023-04-02T09:16:16;96728.38;;;17.10;49.98
17209;BME280;8720;48.488;9.202;2023-04-02T09:18:46;96736.78;;;17.16;50.04
17209;BME280;8720;48.488;9.202;2023-04-02T09:21:31;96740.31;;;17.17;50.26
17209;BME280;8720;48.488;9.202;2023-04-02T09:24:00;96748.00;;;17.21;49.98
17209;BME280;8720;48.488;9.202;2023-04-02T09:26:29;96746.13;;;17.23;49.89
17209;BME280;8720;48.488;9.202;2023-04-02T09:29:18;96720.16;;;17.14;49.91
17209;BME280;8720;48.488;9.202;2023-04-02T09:32:01;96755.75;;;17.40;49.91
17209;BME280;8720;48.488;9.202;2023-04-02T09:34:35;96751.06;;;17.45;49.53
17209;BME280;8720;48.488;9.202;2023-04-02T09:37:07;96760.31;;;17.54;49.49
17209;BME280;8720;48.488;9.202;2023-04-02T09:39:39;96757.59;;;17.55;49.63
17209;BME280;8720;48.488;9.202;2023-04-02T09:42:28;96774.41;;;17.70;49.78
17209;BME280;8720;48.488;9.202;2023-04-02T09:45:14;96776.00;;;17.72;49.33
17209;BME280;8720;48.488;9.202;2023-04-02T09:47:41;96766.81;;;17.64;48.87
17209;BME280;8720;48.488;9.202;2023-04-02T09:50:23;96780.91;;;17.64;49.09
17209;BME280;8720;48.488;9.202;2023-04-02T09:52:51;96775.63;;;17.64;48.99
17209;BME280;8720;48.488;9.202;2023-04-02T09:55:23;96774.06;;;17.60;49.02
17209;BME280;8720;48.488;9.202;2023-04-02T09:58:11;96770.13;;;17.67;49.10
17209;BME280;8720;48.488;9.202;2023-04-02T10:00:50;96779.00;;;17.82;48.97
17209;BME280;8720;48.488;9.202;2023-04-02T10:03:23;96791.81;;;17.89;48.89
17209;BME280;8720;48.488;9.202;2023-04-02T10:06:08;96788.13;;;17.92;49.02
17209;BME280;8720;48.488;9.202;2023-04-02T10:08:38;96799.25;;;17.98;48.42
17209;BME280;8720;48.488;9.202;2023-04-02T10:11:10;96795.63;;;17.99;48.35
17209;BME280;8720;48.488;9.202;2023-04-02T10:13:50;96776.69;;;17.91;48.38
17209;BME280;8720;48.488;9.202;2023-04-02T10:16:26;96800.00;;;18.00;48.36
17209;BME280;8720;48.488;9.202;2023-04-02T10:19:05;96808.81;;;18.01;48.37
17209;BME280;8720;48.488;9.202;2023-04-02T10:21:40;96805.47;;;17.97;48.08
17209;BME280;8720;48.488;9.202;2023-04-02T10:24:12;96817.91;;;17.95;47.88
17209;BME280;8720;48.488;9.202;2023-04-02T10:26:57;96804.28;;;17.87;48.08
17209;BME280;8720;48.488;9.202;2023-04-02T10:30:00;96823.66;;;17.88;48.28
17209;BME280;8720;48.488;9.202;2023-04-02T10:32:39;96814.25;;;17.82;47.80
17209;BME280;8720;48.488;9.202;2023-04-02T10:35:17;96814.59;;;17.76;47.60
17209;BME280;8720;48.488;9.202;2023-04-02T10:38:18;96820.16;;;17.72;48.11
17209;BME280;8720;48.488;9.202;2023-04-02T10:40:58;96817.75;;;17.67;48.10
17209;BME280;8720;48.488;9.202;2023-04-02T10:43:57;96821.19;;;17.69;48.30
17209;BME280;8720;48.488;9.202;2023-04-02T10:46:32;96828.69;;;17.77;48.23
17209;BME280;8720;48.488;9.202;2023-04-02T10:49:17;96832.63;;;17.85;47.90
17209;BME280;8720;48.488;9.202;2023-04-02T10:51:57;96827.34;;;17.85;47.86
17209;BME280;8720;48.488;9.202;2023-04-02T10:54:37;96830.56;;;17.90;47.61
17209;BME280;8720;48.488;9.202;2023-04-02T10:57:30;96835.28;;;18.01;47.70
17209;BME280;8720;48.488;9.202;2023-04-02T11:00:17;96838.59;;;18.04;47.79
17209;BME280;8720;48.488;9.202;2023-04-02T11:02:53;96838.59;;;18.20;47.35
17209;BME280;8720;48.488;9.202;2023-04-02T11:05:39;96837.09;;;18.30;47.44
17209;BME280;8720;48.488;9.202;2023-04-02T11:08:17;96840.72;;;18.45;47.51
17209;BME280;8720;48.488;9.202;2023-04-02T11:10:49;96843.22;;;18.62;47.26
17209;BME280;8720;48.488;9.202;2023-04-02T11:13:23;96837.03;;;18.77;46.90
17209;BME280;8720;48.488;9.202;2023-04-02T11:15:52;96840.75;;;18.88;46.53
17209;BME280;8720;48.488;9.202;2023-04-02T11:18:25;96833.41;;;18.93;46.78
17209;BME280;8720;48.488;9.202;2023-04-02T11:21:01;96837.09;;;19.05;46.37
17209;BME280;8720;48.488;9.202;2023-04-02T11:23:38;96839.28;;;19.13;46.21
17209;BME280;8720;48.488;9.202;2023-04-02T11:26:35;96837.31;;;19.16;46.03
17209;BME280;8720;48.488;9.202;2023-04-02T11:29:17;96852.75;;;19.24;46.19
17209;BME280;8720;48.488;9.202;2023-04-02T11:31:47;96841.59;;;19.33;45.86
17209;BME280;8720;48.488;9.202;2023-04-02T11:35:00;96845.50;;;19.41;46.66
17209;BME280;8720;48.488;9.202;2023-04-02T11:37:35;96851.75;;;19.54;45.82
17209;BME280;8720;48.488;9.202;2023-04-02T11:40:47;96849.38;;;19.64;46.20
17209;BME280;8720;48.488;9.202;2023-04-02T11:43:50;96846.44;;;19.68;46.10
17209;BME280;8720;48.488;9.202;2023-04-02T11:46:41;96846.81;;;19.76;45.13
17209;BME280;8720;48.488;9.202;2023-04-02T11:49:39;96856.94;;;19.84;45.62
17209;BME280;8720;48.488;9.202;2023-04-02T11:52:26;96857.88;;;19.97;44.87
17209;BME280;8720;48.488;9.202;2023-04-02T11:55:22;96845.72;;;20.07;44.90
17209;BME280;8720;48.488;9.202;2023-04-02T11:58:39;96852.97;;;20.18;45.01
17209;BME280;8720;48.488;9.202;2023-04-02T12:01:34;96842.84;;;20.24;44.75
17209;BME280;8720;48.488;9.202;2023-04-02T12:07:56;96869.69;;;20.34;45.36
17209;BME280;8720;48.488;9.202;2023-04-02T12:10:50;96875.16;;;20.31;44.97
17209;BME280;8720;48.488;9.202;2023-04-02T12:13:19;96866.19;;;20.19;43.71
17209;BME280;8720;48.488;9.202;2023-04-02T12:15:51;96877.56;;;20.21;43.72
17209;BME280;8720;48.488;9.202;2023-04-02T12:18:22;96891.31;;;20.14;43.57
17209;BME280;8720;48.488;9.202;2023-04-02T12:20:53;96887.94;;;19.98;44.28
17209;BME280;8720;48.488;9.202;2023-04-02T12:23:26;96881.97;;;19.80;43.96
17209;BME280;8720;48.488;9.202;2023-04-02T12:25:59;96892.13;;;19.59;44.20
17209;BME280;8720;48.488;9.202;2023-04-02T12:28:28;96888.50;;;19.32;44.78
17209;BME280;8720;48.488;9.202;2023-04-02T12:31:04;96900.66;;;19.21;44.75
17209;BME280;8720;48.488;9.202;2023-04-02T12:33:39;96900.91;;;19.02;44.43
17209;BME280;8720;48.488;9.202;2023-04-02T12:36:19;96908.03;;;18.86;44.47
17209;BME280;8720;48.488;9.202;2023-04-02T12:38:49;96873.19;;;18.48;44.94
17209;BME280;8720;48.488;9.202;2023-04-02T12:41:24;96890.34;;;18.41;44.88
17209;BME280;8720;48.488;9.202;2023-04-02T12:44:00;96911.97;;;18.34;44.99
17209;BME280;8720;48.488;9.202;2023-04-02T12:46:31;96922.56;;;18.18;44.66
17209;BME280;8720;48.488;9.202;2023-04-02T12:49:05;96907.88;;;17.97;44.96
17209;BME280;8720;48.488;9.202;2023-04-02T12:51:35;96918.16;;;17.86;45.42
17209;BME280;8720;48.488;9.202;2023-04-02T12:54:12;96891.25;;;17.62;45.52
17209;BME280;8720;48.488;9.202;2023-04-02T12:56:43;96929.66;;;17.69;45.19
17209;BME280;8720;48.488;9.202;2023-04-02T12:59:28;96920.34;;;17.45;45.64
17209;BME280;8720;48.488;9.202;2023-04-02T13:01:58;96926.81;;;17.40;45.72
17209;BME280;8720;48.488;9.202;2023-04-02T13:04:26;96905.06;;;17.17;46.02
17209;BME280;8720;48.488;9.202;2023-04-02T13:06:54;96929.25;;;17.27;46.20
17209;BME280;8720;48.488;9.202;2023-04-02T13:09:31;96922.09;;;17.12;46.34
17209;BME280;8720;48.488;9.202;2023-04-02T13:12:04;96868.53;;;16.74;46.59
17209;BME280;8720;48.488;9.202;2023-04-02T13:14:32;96932.69;;;17.12;46.89
17209;BME280;8720;48.488;9.202;2023-04-02T13:17:00;96939.84;;;17.10;46.75
17209;BME280;8720;48.488;9.202;2023-04-02T13:19:29;96922.13;;;16.95;46.97
17209;BME280;8720;48.488;9.202;2023-04-02T13:22:00;96933.84;;;17.06;47.03
17209;BME280;8720;48.488;9.202;2023-04-02T13:24:30;96942.47;;;17.10;47.09
17209;BME280;8720;48.488;9.202;2023-04-02T13:27:04;96936.94;;;17.14;47.08
17209;BME280;8720;48.488;9.202;2023-04-02T13:29:33;96939.19;;;17.22;46.90
17209;BME280;8720;48.488;9.202;2023-04-02T13:32:04;96935.44;;;17.26;47.14
17209;BME280;8720;48.488;9.202;2023-04-02T13:34:32;96937.69;;;17.34;47.12
17209;BME280;8720;48.488;9.202;2023-04-02T13:37:02;96921.78;;;17.35;46.97
17209;BME280;8720;48.488;9.202;2023-04-02T13:39:29;96926.41;;;17.47;47.13
17209;BME280;8720;48.488;9.202;2023-04-02T13:41:59;96925.09;;;17.56;46.80
17209;BME280;8720;48.488;9.202;2023-04-02T13:44:31;96940.06;;;17.72;46.63
17209;BME280;8720;48.488;9.202;2023-04-02T13:47:00;96927.63;;;17.74;46.71
17209;BME280;8720;48.488;9.202;2023-04-02T13:49:28;96911.06;;;17.71;46.63
17209;BME280;8720;48.488;9.202;2023-04-02T13:51:58;96938.00;;;17.94;46.41
17209;BME280;8720;48.488;9.202;2023-04-02T13:54:33;96940.13;;;18.03;46.85
17209;BME280;8720;48.488;9.202;2023-04-02T14:00:09;96939.28;;;18.18;46.64
17209;BME280;8720;48.488;9.202;2023-04-02T14:02:41;96943.31;;;18.26;46.64
17209;BME280;8720;48.488;9.202;2023-04-02T14:05:25;96944.88;;;18.30;46.54
17209;BME280;8720;48.488;9.202;2023-04-02T14:08:06;96937.59;;;18.33;46.32